To NAV CANADA Home Page Login to a new session Search on AWWS site Feedback and Comments Disclaimer Vers la page française équivalente Tips FAQ What's new on the site To the Forecasts and Observations / NOTAM section To "File a Flight Plan" website Publications and other links Update of the User's profile FIC Telephone Numbers My Weather Data Folder Route Weather Data Regional Weather Data Local Weather Data To the Forecasts and Observations / NOTAM section
Request Generated 04/21/2014 at 09:44:29 UTC . Weather information available at that time is displayed.

METAR/TAF

CALGARY/CALGARY INTL/AB    

METAR CYYC 210900Z 29007KT 15SM SCT170 06/M09 A3009 RMK AS3 SLP211=
METAR CYYC 210800Z 27008KT 15SM SCT180 06/M09 A3010 RMK AS3 SLP213=
METAR CYYC 210700Z 15006KT 15SM SCT190 04/M08 A3009 RMK AS3 SLP214=

TAF CYYC 210839Z 2109/2206 27008KT P6SM SCT150
FM211200 26006KT P6SM SCT120
BECMG 2116/2118 15012KT
FM211800 15012KT P6SM BKN150 TEMPO 2118/2122 SCT150
FM212200 18012KT P6SM SCT090 TEMPO 2122/2204 BKN090
BECMG 2204/2206 20010KT BKN150
RMK NXT FCST BY 211200Z=
Your time UTC time
Weather data provided by Environment Canada and NAV CANADA